sensor_id;sensor_type;location;lat;lon;timestamp;temperature;humidity
6666;DHT22;3369;49.906;8.598;2024-01-25T00:00:25;8.60;99.90
6666;DHT22;3369;49.906;8.598;2024-01-25T00:02:50;8.50;99.90
6666;DHT22;3369;49.906;8.598;2024-01-25T00:05:16;8.50;99.90
6666;DHT22;3369;49.906;8.598;2024-01-25T00:07:48;8.40;99.90
6666;DHT22;3369;49.906;8.598;2024-01-25T00:10:16;8.40;99.90
6666;DHT22;3369;49.906;8.598;2024-01-25T00:12:41;8.40;99.90
6666;DHT22;3369;49.906;8.598;2024-01-25T00:15:10;8.30;99.90
6666;DHT22;3369;49.906;8.598;2024-01-25T00:17:36;8.30;99.90
6666;DHT22;3369;49.906;8.598;2024-01-25T00:20:03;8.20;99.90
6666;DHT22;3369;49.906;8.598;2024-01-25T00:22:29;8.20;99.90
6666;DHT22;3369;49.906;8.598;2024-01-25T00:24:55;8.20;99.90
6666;DHT22;3369;49.906;8.598;2024-01-25T00:27:20;8.20;99.90
6666;DHT22;3369;49.906;8.598;2024-01-25T00:29:46;8.20;99.90
6666;DHT22;3369;49.906;8.598;2024-01-25T00:32:11;8.20;99.90
6666;DHT22;3369;49.906;8.598;2024-01-25T00:34:37;8.10;99.90
6666;DHT22;3369;49.906;8.598;2024-01-25T00:37:03;8.20;99.90
6666;DHT22;3369;49.906;8.598;2024-01-25T00:39:29;8.20;99.90
6666;DHT22;3369;49.906;8.598;2024-01-25T00:42:02;8.20;99.90
6666;DHT22;3369;49.906;8.598;2024-01-25T00:44:28;8.20;99.90
6666;DHT22;3369;49.906;8.598;2024-01-25T00:46:54;8.10;99.90
6666;DHT22;3369;49.906;8.598;2024-01-25T00:49:20;8.10;99.90
6666;DHT22;3369;49.906;8.598;2024-01-25T00:51:47;8.10;99.90
6666;DHT22;3369;49.906;8.598;2024-01-25T00:54:14;8.10;99.90
6666;DHT22;3369;49.906;8.598;2024-01-25T00:56:40;8.10;99.90
6666;DHT22;3369;49.906;8.598;2024-01-25T00:59:06;8.20;99.90
6666;DHT22;3369;49.906;8.598;2024-01-25T01:01:32;8.10;99.90
6666;DHT22;3369;49.906;8.598;2024-01-25T01:03:58;8.10;99.90
6666;DHT22;3369;49.906;8.598;2024-01-25T01:06:24;8.10;99.90
6666;DHT22;3369;49.906;8.598;2024-01-25T01:08:50;8.10;99.90
6666;DHT22;3369;49.906;8.598;2024-01-25T01:11:17;8.10;99.90
6666;DHT22;3369;49.906;8.598;2024-01-25T01:13:42;8.10;99.90
6666;DHT22;3369;49.906;8.598;2024-01-25T01:16:08;8.10;99.90
6666;DHT22;3369;49.906;8.598;2024-01-25T01:18:34;8.10;99.90
6666;DHT22;3369;49.906;8.598;2024-01-25T01:20:59;8.10;99.90
6666;DHT22;3369;49.906;8.598;2024-01-25T01:23:25;8.10;99.90
6666;DHT22;3369;49.906;8.598;2024-01-25T01:25:51;8.10;99.90
6666;DHT22;3369;49.906;8.598;2024-01-25T01:28:16;8.20;99.90
6666;DHT22;3369;49.906;8.598;2024-01-25T01:30:42;8.10;99.90
6666;DHT22;3369;49.906;8.598;2024-01-25T01:33:08;8.20;99.90
6666;DHT22;3369;49.906;8.598;2024-01-25T01:35:34;8.20;99.90
6666;DHT22;3369;49.906;8.598;2024-01-25T01:38:00;8.20;99.90
6666;DHT22;3369;49.906;8.598;2024-01-25T01:40:25;8.20;99.90
6666;DHT22;3369;49.906;8.598;2024-01-25T01:42:51;8.20;99.90
6666;DHT22;3369;49.906;8.598;2024-01-25T01:45:17;8.20;99.90
6666;DHT22;3369;49.906;8.598;2024-01-25T01:47:42;8.10;99.90
6666;DHT22;3369;49.906;8.598;2024-01-25T01:50:09;8.20;99.90
6666;DHT22;3369;49.906;8.598;2024-01-25T01:52:35;8.20;99.90
6666;DHT22;3369;49.906;8.598;2024-01-25T01:55:02;8.10;99.90
6666;DHT22;3369;49.906;8.598;2024-01-25T01:57:28;8.10;99.90
6666;DHT22;3369;49.906;8.598;2024-01-25T01:59:54;8.10;99.90
6666;DHT22;3369;49.906;8.598;2024-01-25T02:02:19;8.10;99.90
6666;DHT22;3369;49.906;8.598;2024-01-25T02:04:45;8.10;99.90
6666;DHT22;3369;49.906;8.598;2024-01-25T02:07:11;8.10;99.90
6666;DHT22;3369;49.906;8.598;2024-01-25T02:09:37;8.10;99.90
6666;DHT22;3369;49.906;8.598;2024-01-25T02:12:03;8.10;99.90
6666;DHT22;3369;49.906;8.598;2024-01-25T02:14:30;8.10;99.90
6666;DHT22;3369;49.906;8.598;2024-01-25T02:16:56;8.00;99.90
6666;DHT22;3369;49.906;8.598;2024-01-25T02:19:22;8.00;99.90
6666;DHT22;3369;49.906;8.598;2024-01-25T02:21:47;8.00;99.90
6666;DHT22;3369;49.906;8.598;2024-01-25T02:24:14;8.00;99.90
6666;DHT22;3369;49.906;8.598;2024-01-25T02:26:39;7.90;99.90
6666;DHT22;3369;49.906;8.598;2024-01-25T02:29:05;7.90;99.90
6666;DHT22;3369;49.906;8.598;2024-01-25T02:31:32;7.80;99.90
6666;DHT22;3369;49.906;8.598;2024-01-25T02:33:58;7.80;99.90
6666;DHT22;3369;49.906;8.598;2024-01-25T02:36:24;7.80;99.90
6666;DHT22;3369;49.906;8.598;2024-01-25T02:38:49;7.80;99.90
6666;DHT22;3369;49.906;8.598;2024-01-25T02:41:15;7.80;99.90
6666;DHT22;3369;49.906;8.598;2024-01-25T02:43:40;7.70;99.90
6666;DHT22;3369;49.906;8.598;2024-01-25T02:46:07;7.80;99.90
6666;DHT22;3369;49.906;8.598;2024-01-25T02:48:34;7.70;99.90
6666;DHT22;3369;49.906;8.598;2024-01-25T02:50:59;7.70;99.90
6666;DHT22;3369;49.906;8.598;2024-01-25T02:53:25;7.70;99.90
6666;DHT22;3369;49.906;8.598;2024-01-25T02:55:51;7.70;99.90
6666;DHT22;3369;49.906;8.598;2024-01-25T02:58:16;7.70;99.90
6666;DHT22;3369;49.906;8.598;2024-01-25T03:00:42;7.80;99.90
6666;DHT22;3369;49.906;8.598;2024-01-25T03:03:07;7.80;99.90
6666;DHT22;3369;49.906;8.598;2024-01-25T03:05:33;7.80;99.90
6666;DHT22;3369;49.906;8.598;2024-01-25T03:08:00;7.80;99.90
6666;DHT22;3369;49.906;8.598;2024-01-25T03:10:25;7.80;99.90
6666;DHT22;3369;49.906;8.598;2024-01-25T03:12:51;7.70;99.90
6666;DHT22;3369;49.906;8.598;2024-01-25T03:15:17;7.70;99.90
6666;DHT22;3369;49.906;8.598;2024-01-25T03:17:42;7.70;99.90
6666;DHT22;3369;49.906;8.598;2024-01-25T03:20:09;7.70;99.90
6666;DHT22;3369;49.906;8.598;2024-01-25T03:22:35;7.70;99.90
6666;DHT22;3369;49.906;8.598;2024-01-25T03:25:01;7.60;99.90
6666;DHT22;3369;49.906;8.598;2024-01-25T03:27:26;7.60;99.90
6666;DHT22;3369;49.906;8.598;2024-01-25T03:29:52;7.60;99.90
6666;DHT22;3369;49.906;8.598;2024-01-25T03:32:17;7.60;99.90
6666;DHT22;3369;49.906;8.598;2024-01-25T03:34:43;7.60;99.90
6666;DHT22;3369;49.906;8.598;2024-01-25T03:37:10;7.50;99.90
6666;DHT22;3369;49.906;8.598;2024-01-25T03:39:36;7.50;99.90
6666;DHT22;3369;49.906;8.598;2024-01-25T03:42:01;7.50;99.90
6666;DHT22;3369;49.906;8.598;2024-01-25T03:44:27;7.50;99.90
6666;DHT22;3369;49.906;8.598;2024-01-25T03:46:52;7.50;99.90
6666;DHT22;3369;49.906;8.598;2024-01-25T03:49:18;7.50;99.90
6666;DHT22;3369;49.906;8.598;2024-01-25T03:51:44;7.50;99.90
6666;DHT22;3369;49.906;8.598;2024-01-25T03:54:10;7.50;99.90
6666;DHT22;3369;49.906;8.598;2024-01-25T03:56:36;7.50;99.90
6666;DHT22;3369;49.906;8.598;2024-01-25T03:59:01;7.50;99.90
6666;DHT22;3369;49.906;8.598;2024-01-25T04:01:27;7.50;99.90
6666;DHT22;3369;49.906;8.598;2024-01-25T04:03:52;7.50;99.90
6666;DHT22;3369;49.906;8.598;2024-01-25T04:06:18;7.50;99.90
6666;DHT22;3369;49.906;8.598;2024-01-25T04:08:45;7.50;99.90
6666;DHT22;3369;49.906;8.598;2024-01-25T04:11:10;7.60;99.90
6666;DHT22;3369;49.906;8.598;2024-01-25T04:13:36;7.50;99.90
6666;DHT22;3369;49.906;8.598;2024-01-25T04:16:01;7.50;99.90
6666;DHT22;3369;49.906;8.598;2024-01-25T04:18:27;7.50;99.90
6666;DHT22;3369;49.906;8.598;2024-01-25T04:20:52;7.50;99.90
6666;DHT22;3369;49.906;8.598;2024-01-25T04:23:18;7.50;99.90
6666;DHT22;3369;49.906;8.598;2024-01-25T04:25:43;7.50;99.90
6666;DHT22;3369;49.906;8.598;2024-01-25T04:28:09;7.40;99.90
6666;DHT22;3369;49.906;8.598;2024-01-25T04:30:35;7.40;99.90
6666;DHT22;3369;49.906;8.598;2024-01-25T04:33:01;7.40;99.90
6666;DHT22;3369;49.906;8.598;2024-01-25T04:35:27;7.40;99.90
6666;DHT22;3369;49.906;8.598;2024-01-25T04:37:52;7.40;99.90
6666;DHT22;3369;49.906;8.598;2024-01-25T04:40:18;7.30;99.90
6666;DHT22;3369;49.906;8.598;2024-01-25T04:42:44;7.30;99.90
6666;DHT22;3369;49.906;8.598;2024-01-25T04:45:10;7.20;99.90
6666;DHT22;3369;49.906;8.598;2024-01-25T04:47:37;7.20;99.90
6666;DHT22;3369;49.906;8.598;2024-01-25T04:50:04;7.10;99.90
6666;DHT22;3369;49.906;8.598;2024-01-25T04:52:30;7.10;99.90
6666;DHT22;3369;49.906;8.598;2024-01-25T04:54:55;7.10;99.90
6666;DHT22;3369;49.906;8.598;2024-01-25T04:57:21;7.00;99.90
6666;DHT22;3369;49.906;8.598;2024-01-25T04:59:46;7.00;99.90
6666;DHT22;3369;49.906;8.598;2024-01-25T05:02:12;6.90;99.90
6666;DHT22;3369;49.906;8.598;2024-01-25T05:04:37;6.90;99.90
6666;DHT22;3369;49.906;8.598;2024-01-25T05:07:03;6.90;99.90
6666;DHT22;3369;49.906;8.598;2024-01-25T05:09:28;6.90;99.90
6666;DHT22;3369;49.906;8.598;2024-01-25T05:11:54;6.90;99.90
6666;DHT22;3369;49.906;8.598;2024-01-25T05:14:24;6.90;99.90
6666;DHT22;3369;49.906;8.598;2024-01-25T05:16:49;6.90;99.90
6666;DHT22;3369;49.906;8.598;2024-01-25T05:19:15;6.80;99.90
6666;DHT22;3369;49.906;8.598;2024-01-25T05:21:40;6.70;99.90
6666;DHT22;3369;49.906;8.598;2024-01-25T05:24:06;6.80;99.90
6666;DHT22;3369;49.906;8.598;2024-01-25T05:26:33;6.70;99.90
6666;DHT22;3369;49.906;8.598;2024-01-25T05:28:58;6.70;99.90
6666;DHT22;3369;49.906;8.598;2024-01-25T05:31:24;6.70;99.90
6666;DHT22;3369;49.906;8.598;2024-01-25T05:33:49;6.70;99.90
6666;DHT22;3369;49.906;8.598;2024-01-25T05:36:15;6.70;99.90
6666;DHT22;3369;49.906;8.598;2024-01-25T05:38:40;6.70;99.90
6666;DHT22;3369;49.906;8.598;2024-01-25T05:41:06;6.70;99.90
6666;DHT22;3369;49.906;8.598;2024-01-25T05:43:33;6.70;99.90
6666;DHT22;3369;49.906;8.598;2024-01-25T05:45:58;6.80;99.90
6666;DHT22;3369;49.906;8.598;2024-01-25T05:48:24;6.80;99.90
6666;DHT22;3369;49.906;8.598;2024-01-25T05:50:49;6.80;99.90
6666;DHT22;3369;49.906;8.598;2024-01-25T05:53:15;6.80;99.90
6666;DHT22;3369;49.906;8.598;2024-01-25T05:55:44;6.80;99.90
6666;DHT22;3369;49.906;8.598;2024-01-25T05:58:09;6.70;99.90
6666;DHT22;3369;49.906;8.598;2024-01-25T06:00:35;6.70;99.90
6666;DHT22;3369;49.906;8.598;2024-01-25T06:03:01;6.70;99.90
6666;DHT22;3369;49.906;8.598;2024-01-25T06:05:26;6.70;99.90
6666;DHT22;3369;49.906;8.598;2024-01-25T06:07:52;6.60;99.90
6666;DHT22;3369;49.906;8.598;2024-01-25T06:10:17;6.50;99.90
6666;DHT22;3369;49.906;8.598;2024-01-25T06:12:43;6.50;99.90
6666;DHT22;3369;49.906;8.598;2024-01-25T06:15:09;6.50;99.90
6666;DHT22;3369;49.906;8.598;2024-01-25T06:17:34;6.40;99.90
6666;DHT22;3369;49.906;8.598;2024-01-25T06:20:00;6.40;99.90
6666;DHT22;3369;49.906;8.598;2024-01-25T06:22:26;6.30;99.90
6666;DHT22;3369;49.906;8.598;2024-01-25T06:24:51;6.40;99.90
6666;DHT22;3369;49.906;8.598;2024-01-25T06:27:17;6.30;99.90
6666;DHT22;3369;49.906;8.598;2024-01-25T06:29:42;6.20;99.90
6666;DHT22;3369;49.906;8.598;2024-01-25T06:32:09;6.20;99.90
6666;DHT22;3369;49.906;8.598;2024-01-25T06:34:35;6.20;99.90
6666;DHT22;3369;49.906;8.598;2024-01-25T06:37:00;6.20;99.90
6666;DHT22;3369;49.906;8.598;2024-01-25T06:39:26;6.10;99.90
6666;DHT22;3369;49.906;8.598;2024-01-25T06:41:51;6.10;99.90
6666;DHT22;3369;49.906;8.598;2024-01-25T06:44:17;6.10;99.90
6666;DHT22;3369;49.906;8.598;2024-01-25T06:46:43;6.10;99.90
6666;DHT22;3369;49.906;8.598;2024-01-25T06:49:08;6.00;99.90
6666;DHT22;3369;49.906;8.598;2024-01-25T06:51:34;6.00;99.90
6666;DHT22;3369;49.906;8.598;2024-01-25T06:53:59;6.00;99.90
6666;DHT22;3369;49.906;8.598;2024-01-25T06:56:25;6.00;99.90
6666;DHT22;3369;49.906;8.598;2024-01-25T06:58:51;5.90;99.90
6666;DHT22;3369;49.906;8.598;2024-01-25T07:01:22;5.90;99.90
6666;DHT22;3369;49.906;8.598;2024-01-25T07:03:49;5.80;99.90
6666;DHT22;3369;49.906;8.598;2024-01-25T07:06:18;5.80;99.90
6666;DHT22;3369;49.906;8.598;2024-01-25T07:08:44;5.80;99.90
6666;DHT22;3369;49.906;8.598;2024-01-25T07:11:10;5.80;99.90
6666;DHT22;3369;49.906;8.598;2024-01-25T07:13:36;5.80;99.90
6666;DHT22;3369;49.906;8.598;2024-01-25T07:16:01;5.80;99.90
6666;DHT22;3369;49.906;8.598;2024-01-25T07:18:27;5.80;99.90
6666;DHT22;3369;49.906;8.598;2024-01-25T07:20:52;5.80;99.90
6666;DHT22;3369;49.906;8.598;2024-01-25T07:23:18;5.80;99.90
6666;DHT22;3369;49.906;8.598;2024-01-25T07:25:44;5.80;99.90
6666;DHT22;3369;49.906;8.598;2024-01-25T07:28:09;5.80;99.90
6666;DHT22;3369;49.906;8.598;2024-01-25T07:30:35;5.80;99.90
6666;DHT22;3369;49.906;8.598;2024-01-25T07:33:00;5.70;99.90
6666;DHT22;3369;49.906;8.598;2024-01-25T07:35:26;5.70;99.90
6666;DHT22;3369;49.906;8.598;2024-01-25T07:37:52;5.70;99.90
6666;DHT22;3369;49.906;8.598;2024-01-25T07:40:18;5.70;99.90
6666;DHT22;3369;49.906;8.598;2024-01-25T07:42:43;5.70;99.90
6666;DHT22;3369;49.906;8.598;2024-01-25T07:45:09;5.70;99.90
6666;DHT22;3369;49.906;8.598;2024-01-25T07:47:35;5.60;99.90
6666;DHT22;3369;49.906;8.598;2024-01-25T07:50:01;5.60;99.90
6666;DHT22;3369;49.906;8.598;2024-01-25T07:52:26;5.60;99.90
6666;DHT22;3369;49.906;8.598;2024-01-25T07:54:52;5.60;99.90
6666;DHT22;3369;49.906;8.598;2024-01-25T07:57:18;5.60;99.90
6666;DHT22;3369;49.906;8.598;2024-01-25T07:59:44;5.60;99.90
6666;DHT22;3369;49.906;8.598;2024-01-25T08:02:10;5.60;99.90
6666;DHT22;3369;49.906;8.598;2024-01-25T08:04:36;5.60;99.90
6666;DHT22;3369;49.906;8.598;2024-01-25T08:07:02;5.60;99.90
6666;DHT22;3369;49.906;8.598;2024-01-25T08:09:27;5.60;99.90
6666;DHT22;3369;49.906;8.598;2024-01-25T08:11:53;5.70;99.90
6666;DHT22;3369;49.906;8.598;2024-01-25T08:14:19;5.70;99.90
6666;DHT22;3369;49.906;8.598;2024-01-25T08:16:44;5.70;99.90
6666;DHT22;3369;49.906;8.598;2024-01-25T08:19:10;5.70;99.90
6666;DHT22;3369;49.906;8.598;2024-01-25T08:21:36;5.70;99.90
6666;DHT22;3369;49.906;8.598;2024-01-25T08:24:02;5.70;99.90
6666;DHT22;3369;49.906;8.598;2024-01-25T08:26:28;5.70;99.90
6666;DHT22;3369;49.906;8.598;2024-01-25T08:28:53;5.80;99.90
6666;DHT22;3369;49.906;8.598;2024-01-25T08:31:19;5.80;99.90
6666;DHT22;3369;49.906;8.598;2024-01-25T08:33:44;5.80;99.90
6666;DHT22;3369;49.906;8.598;2024-01-25T08:36:13;5.80;99.90
6666;DHT22;3369;49.906;8.598;2024-01-25T08:38:39;5.80;99.90
6666;DHT22;3369;49.906;8.598;2024-01-25T08:41:04;5.90;99.90
6666;DHT22;3369;49.906;8.598;2024-01-25T08:43:30;5.90;99.90
6666;DHT22;3369;49.906;8.598;2024-01-25T08:45:56;6.00;99.90
6666;DHT22;3369;49.906;8.598;2024-01-25T08:48:21;6.10;99.90
6666;DHT22;3369;49.906;8.598;2024-01-25T08:50:47;6.10;99.90
6666;DHT22;3369;49.906;8.598;2024-01-25T08:53:18;6.20;99.90
6666;DHT22;3369;49.906;8.598;2024-01-25T08:55:44;6.30;99.90
6666;DHT22;3369;49.906;8.598;2024-01-25T08:58:10;6.30;99.90
6666;DHT22;3369;49.906;8.598;2024-01-25T09:00:35;6.40;99.90
6666;DHT22;3369;49.906;8.598;2024-01-25T09:03:01;6.40;99.90
6666;DHT22;3369;49.906;8.598;2024-01-25T09:05:27;6.50;99.90
6666;DHT22;3369;49.906;8.598;2024-01-25T09:07:54;6.50;99.90
6666;DHT22;3369;49.906;8.598;2024-01-25T09:10:19;6.60;99.90
6666;DHT22;3369;49.906;8.598;2024-01-25T09:12:45;6.70;99.90
6666;DHT22;3369;49.906;8.598;2024-01-25T09:15:10;6.70;99.90
6666;DHT22;3369;49.906;8.598;2024-01-25T09:17:36;6.80;99.90
6666;DHT22;3369;49.906;8.598;2024-01-25T09:20:02;6.90;99.90
6666;DHT22;3369;49.906;8.598;2024-01-25T09:22:28;7.00;99.90
6666;DHT22;3369;49.906;8.598;2024-01-25T09:24:54;7.10;99.90
6666;DHT22;3369;49.906;8.598;2024-01-25T09:27:19;7.10;99.90
6666;DHT22;3369;49.906;8.598;2024-01-25T09:29:45;7.20;99.90
6666;DHT22;3369;49.906;8.598;2024-01-25T09:32:11;7.40;99.90
6666;DHT22;3369;49.906;8.598;2024-01-25T09:34:38;7.40;99.90
6666;DHT22;3369;49.906;8.598;2024-01-25T09:37:04;7.50;99.90
6666;DHT22;3369;49.906;8.598;2024-01-25T09:39:30;7.60;99.90
6666;DHT22;3369;49.906;8.598;2024-01-25T09:41:56;7.70;99.90
6666;DHT22;3369;49.906;8.598;2024-01-25T09:44:22;7.80;99.90
6666;DHT22;3369;49.906;8.598;2024-01-25T09:46:48;7.90;99.90
6666;DHT22;3369;49.906;8.598;2024-01-25T09:49:13;7.90;99.90
6666;DHT22;3369;49.906;8.598;2024-01-25T09:51:41;8.00;99.90
6666;DHT22;3369;49.906;8.598;2024-01-25T09:54:08;8.00;99.90
6666;DHT22;3369;49.906;8.598;2024-01-25T09:56:34;8.10;99.90
6666;DHT22;3369;49.906;8.598;2024-01-25T09:59:00;8.10;99.90
6666;DHT22;3369;49.906;8.598;2024-01-25T10:01:26;8.20;99.90
6666;DHT22;3369;49.906;8.598;2024-01-25T10:03:52;8.30;99.90
6666;DHT22;3369;49.906;8.598;2024-01-25T10:06:18;8.30;99.90
6666;DHT22;3369;49.906;8.598;2024-01-25T10:08:44;8.40;99.90
6666;DHT22;3369;49.906;8.598;2024-01-25T10:11:10;8.40;99.90
6666;DHT22;3369;49.906;8.598;2024-01-25T10:13:47;8.30;99.90
6666;DHT22;3369;49.906;8.598;2024-01-25T10:16:14;8.50;99.90
6666;DHT22;3369;49.906;8.598;2024-01-25T10:18:45;8.50;99.90
6666;DHT22;3369;49.906;8.598;2024-01-25T10:21:12;8.60;99.90
6666;DHT22;3369;49.906;8.598;2024-01-25T10:23:38;8.60;99.90
6666;DHT22;3369;49.906;8.598;2024-01-25T10:26:04;8.70;99.90
6666;DHT22;3369;49.906;8.598;2024-01-25T10:28:30;8.70;99.90
6666;DHT22;3369;49.906;8.598;2024-01-25T10:30:59;8.70;99.90
6666;DHT22;3369;49.906;8.598;2024-01-25T10:33:26;8.80;99.90
6666;DHT22;3369;49.906;8.598;2024-01-25T10:35:54;8.80;99.90
6666;DHT22;3369;49.906;8.598;2024-01-25T10:38:21;8.90;99.90
6666;DHT22;3369;49.906;8.598;2024-01-25T10:40:48;9.00;99.90
6666;DHT22;3369;49.906;8.598;2024-01-25T10:43:14;9.10;99.90
6666;DHT22;3369;49.906;8.598;2024-01-25T10:45:40;9.20;99.90
6666;DHT22;3369;49.906;8.598;2024-01-25T10:48:07;9.30;99.90
6666;DHT22;3369;49.906;8.598;2024-01-25T10:50:33;9.40;99.90
6666;DHT22;3369;49.906;8.598;2024-01-25T10:52:59;9.50;99.90
6666;DHT22;3369;49.906;8.598;2024-01-25T10:55:25;9.60;99.90
6666;DHT22;3369;49.906;8.598;2024-01-25T10:57:52;9.60;99.90
6666;DHT22;3369;49.906;8.598;2024-01-25T11:00:18;9.60;99.90
6666;DHT22;3369;49.906;8.598;2024-01-25T11:02:45;9.60;99.90
6666;DHT22;3369;49.906;8.598;2024-01-25T11:05:14;9.60;99.90
6666;DHT22;3369;49.906;8.598;2024-01-25T11:07:44;9.60;99.90
6666;DHT22;3369;49.906;8.598;2024-01-25T11:10:17;9.70;99.90
6666;DHT22;3369;49.906;8.598;2024-01-25T11:15:22;9.80;99.90
6666;DHT22;3369;49.906;8.598;2024-01-25T11:17:55;9.80;99.90
6666;DHT22;3369;49.906;8.598;2024-01-25T11:20:25;9.80;99.90
6666;DHT22;3369;49.906;8.598;2024-01-25T11:23:02;9.80;99.90
6666;DHT22;3369;49.906;8.598;2024-01-25T11:25:32;9.80;99.90
6666;DHT22;3369;49.906;8.598;2024-01-25T11:28:00;9.80;99.90
6666;DHT22;3369;49.906;8.598;2024-01-25T11:30:28;9.80;99.90
6666;DHT22;3369;49.906;8.598;2024-01-25T11:32:54;9.80;99.90
6666;DHT22;3369;49.906;8.598;2024-01-25T11:35:21;9.80;99.90
6666;DHT22;3369;49.906;8.598;2024-01-25T11:37:48;9.80;99.90
6666;DHT22;3369;49.906;8.598;2024-01-25T11:40:15;9.80;99.90
6666;DHT22;3369;49.906;8.598;2024-01-25T11:42:45;9.80;99.90
6666;DHT22;3369;49.906;8.598;2024-01-25T11:45:13;9.80;99.90
6666;DHT22;3369;49.906;8.598;2024-01-25T11:47:40;9.80;99.90
6666;DHT22;3369;49.906;8.598;2024-01-25T11:50:08;9.90;99.90
6666;DHT22;3369;49.906;8.598;2024-01-25T11:52:34;9.90;99.90
6666;DHT22;3369;49.906;8.598;2024-01-25T11:55:08;10.00;99.90
6666;DHT22;3369;49.906;8.598;2024-01-25T11:57:39;10.10;99.90
6666;DHT22;3369;49.906;8.598;2024-01-25T12:00:07;10.00;99.90
6666;DHT22;3369;49.906;8.598;2024-01-25T12:02:38;10.10;99.90
6666;DHT22;3369;49.906;8.598;2024-01-25T12:05:05;10.10;99.90
6666;DHT22;3369;49.906;8.598;2024-01-25T12:07:31;10.10;99.90
6666;DHT22;3369;49.906;8.598;2024-01-25T12:10:02;10.10;99.90
6666;DHT22;3369;49.906;8.598;2024-01-25T12:12:28;10.10;99.90
6666;DHT22;3369;49.906;8.598;2024-01-25T12:15:12;10.10;99.90
6666;DHT22;3369;49.906;8.598;2024-01-25T12:17:38;10.10;99.90
6666;DHT22;3369;49.906;8.598;2024-01-25T12:20:07;10.20;99.90
6666;DHT22;3369;49.906;8.598;2024-01-25T12:22:36;10.20;99.90
6666;DHT22;3369;49.906;8.598;2024-01-25T12:25:07;10.20;99.90
6666;DHT22;3369;49.906;8.598;2024-01-25T12:27:33;10.20;99.70
6666;DHT22;3369;49.906;8.598;2024-01-25T12:29:58;10.30;99.60
6666;DHT22;3369;49.906;8.598;2024-01-25T12:32:24;10.40;99.50
6666;DHT22;3369;49.906;8.598;2024-01-25T12:34:57;10.40;99.50
6666;DHT22;3369;49.906;8.598;2024-01-25T12:37:23;10.50;99.70
6666;DHT22;3369;49.906;8.598;2024-01-25T12:39:53;10.50;99.60
6666;DHT22;3369;49.906;8.598;2024-01-25T12:42:20;10.60;99.60
6666;DHT22;3369;49.906;8.598;2024-01-25T12:44:46;10.60;99.50
6666;DHT22;3369;49.906;8.598;2024-01-25T12:47:12;10.60;99.50
6666;DHT22;3369;49.906;8.598;2024-01-25T12:49:44;10.70;99.50
6666;DHT22;3369;49.906;8.598;2024-01-25T12:52:11;10.70;99.60
6666;DHT22;3369;49.906;8.598;2024-01-25T12:54:38;10.80;99.60
6666;DHT22;3369;49.906;8.598;2024-01-25T12:57:04;10.90;99.20
6666;DHT22;3369;49.906;8.598;2024-01-25T12:59:30;10.90;98.90
6666;DHT22;3369;49.906;8.598;2024-01-25T13:01:56;10.90;98.50
6666;DHT22;3369;49.906;8.598;2024-01-25T13:04:23;10.90;98.60
6666;DHT22;3369;49.906;8.598;2024-01-25T13:06:51;10.90;98.70
6666;DHT22;3369;49.906;8.598;2024-01-25T13:09:16;10.90;98.80
6666;DHT22;3369;49.906;8.598;2024-01-25T13:11:42;10.90;98.80
6666;DHT22;3369;49.906;8.598;2024-01-25T13:14:08;10.90;98.80
6666;DHT22;3369;49.906;8.598;2024-01-25T13:16:33;10.80;98.90
6666;DHT22;3369;49.906;8.598;2024-01-25T13:18:59;10.80;98.70
6666;DHT22;3369;49.906;8.598;2024-01-25T13:21:25;10.80;98.60
6666;DHT22;3369;49.906;8.598;2024-01-25T13:23:50;10.80;98.70
6666;DHT22;3369;49.906;8.598;2024-01-25T13:26:16;10.80;98.40
6666;DHT22;3369;49.906;8.598;2024-01-25T13:28:42;10.80;98.40
6666;DHT22;3369;49.906;8.598;2024-01-25T13:31:07;10.80;98.40
6666;DHT22;3369;49.906;8.598;2024-01-25T13:33:33;10.80;98.50
6666;DHT22;3369;49.906;8.598;2024-01-25T13:35:58;10.80;98.60
6666;DHT22;3369;49.906;8.598;2024-01-25T13:38:24;10.80;98.70
6666;DHT22;3369;49.906;8.598;2024-01-25T13:40:50;10.80;98.80
6666;DHT22;3369;49.906;8.598;2024-01-25T13:43:16;10.80;98.80
6666;DHT22;3369;49.906;8.598;2024-01-25T13:45:42;10.80;98.80
6666;DHT22;3369;49.906;8.598;2024-01-25T13:48:07;10.80;98.80
6666;DHT22;3369;49.906;8.598;2024-01-25T13:50:33;10.70;98.80
6666;DHT22;3369;49.906;8.598;2024-01-25T13:52:59;10.80;98.60
6666;DHT22;3369;49.906;8.598;2024-01-25T13:55:24;10.80;98.70
6666;DHT22;3369;49.906;8.598;2024-01-25T13:57:50;10.70;98.70
6666;DHT22;3369;49.906;8.598;2024-01-25T14:00:15;10.70;98.80
6666;DHT22;3369;49.906;8.598;2024-01-25T14:02:41;10.70;98.90
6666;DHT22;3369;49.906;8.598;2024-01-25T14:05:11;10.60;98.90
6666;DHT22;3369;49.906;8.598;2024-01-25T14:07:37;10.60;98.90
6666;DHT22;3369;49.906;8.598;2024-01-25T14:10:03;10.70;99.00
6666;DHT22;3369;49.906;8.598;2024-01-25T14:12:29;10.70;99.00
6666;DHT22;3369;49.906;8.598;2024-01-25T14:14:54;10.60;98.80
6666;DHT22;3369;49.906;8.598;2024-01-25T14:17:20;10.50;98.60
6666;DHT22;3369;49.906;8.598;2024-01-25T14:19:47;10.50;98.80
6666;DHT22;3369;49.906;8.598;2024-01-25T14:22:12;10.60;98.90
6666;DHT22;3369;49.906;8.598;2024-01-25T14:24:38;10.60;99.00
6666;DHT22;3369;49.906;8.598;2024-01-25T14:27:04;10.50;98.90
6666;DHT22;3369;49.906;8.598;2024-01-25T14:29:30;10.50;98.90
6666;DHT22;3369;49.906;8.598;2024-01-25T14:31:58;10.50;99.00
6666;DHT22;3369;49.906;8.598;2024-01-25T14:34:23;10.50;99.10
6666;DHT22;3369;49.906;8.598;2024-01-25T14:36:50;10.50;99.10
6666;DHT22;3369;49.906;8.598;2024-01-25T14:39:17;10.50;99.10
6666;DHT22;3369;49.906;8.598;2024-01-25T14:41:46;10.40;99.10
6666;DHT22;3369;49.906;8.598;2024-01-25T14:44:12;10.40;99.10
6666;DHT22;3369;49.906;8.598;2024-01-25T14:46:37;10.40;99.20
6666;DHT22;3369;49.906;8.598;2024-01-25T14:49:04;10.40;99.30
6666;DHT22;3369;49.906;8.598;2024-01-25T14:51:30;10.40;99.30
6666;DHT22;3369;49.906;8.598;2024-01-25T14:53:56;10.40;99.30
6666;DHT22;3369;49.906;8.598;2024-01-25T14:56:22;10.30;99.30
6666;DHT22;3369;49.906;8.598;2024-01-25T14:58:48;10.30;99.40
6666;DHT22;3369;49.906;8.598;2024-01-25T15:01:14;10.30;99.50
6666;DHT22;3369;49.906;8.598;2024-01-25T15:03:45;10.30;99.60
6666;DHT22;3369;49.906;8.598;2024-01-25T15:06:12;10.20;99.60
6666;DHT22;3369;49.906;8.598;2024-01-25T15:08:38;10.20;99.70
6666;DHT22;3369;49.906;8.598;2024-01-25T15:11:04;10.20;99.80
6666;DHT22;3369;49.906;8.598;2024-01-25T15:13:30;10.10;99.80
6666;DHT22;3369;49.906;8.598;2024-01-25T15:15:56;10.10;99.90
6666;DHT22;3369;49.906;8.598;2024-01-25T15:18:21;10.10;99.90
6666;DHT22;3369;49.906;8.598;2024-01-25T15:20:47;10.10;99.90
6666;DHT22;3369;49.906;8.598;2024-01-25T15:23:13;10.10;99.90
6666;DHT22;3369;49.906;8.598;2024-01-25T15:25:39;10.00;99.90
6666;DHT22;3369;49.906;8.598;2024-01-25T15:28:05;10.00;99.90
6666;DHT22;3369;49.906;8.598;2024-01-25T15:30:31;10.00;99.90
6666;DHT22;3369;49.906;8.598;2024-01-25T15:32:56;10.00;99.90
6666;DHT22;3369;49.906;8.598;2024-01-25T15:35:22;10.00;99.90
6666;DHT22;3369;49.906;8.598;2024-01-25T15:37:48;9.90;99.90
6666;DHT22;3369;49.906;8.598;2024-01-25T15:40:14;9.90;99.90
6666;DHT22;3369;49.906;8.598;2024-01-25T15:42:42;9.90;99.90
6666;DHT22;3369;49.906;8.598;2024-01-25T15:45:08;9.90;99.90
6666;DHT22;3369;49.906;8.598;2024-01-25T15:47:34;9.80;99.90
6666;DHT22;3369;49.906;8.598;2024-01-25T15:50:00;9.80;99.90
6666;DHT22;3369;49.906;8.598;2024-01-25T15:52:26;9.80;99.90
6666;DHT22;3369;49.906;8.598;2024-01-25T15:54:51;9.80;99.90
6666;DHT22;3369;49.906;8.598;2024-01-25T15:57:17;9.70;99.90
6666;DHT22;3369;49.906;8.598;2024-01-25T15:59:43;9.80;99.90
6666;DHT22;3369;49.906;8.598;2024-01-25T16:02:08;9.70;99.90
6666;DHT22;3369;49.906;8.598;2024-01-25T16:04:34;9.60;99.90
6666;DHT22;3369;49.906;8.598;2024-01-25T16:07:00;9.60;99.90
6666;DHT22;3369;49.906;8.598;2024-01-25T16:09:26;9.60;99.90